createdAt,value
2022-07-28T00:01:51.658Z,20.10
2022-07-28T00:04:18.639Z,20.20
2022-07-28T00:06:45.570Z,20.20
2022-07-28T00:09:12.491Z,20.20
2022-07-28T00:11:54.210Z,20.30
2022-07-28T00:14:22.004Z,20.20
2022-07-28T00:16:48.859Z,20.20
2022-07-28T00:19:15.849Z,20.20
2022-07-28T00:21:42.678Z,20.10
2022-07-28T00:24:10.129Z,19.90
2022-07-28T00:26:37.163Z,19.70
2022-07-28T00:29:05.115Z,19.80
2022-07-28T00:31:32.442Z,19.90
2022-07-28T00:33:59.624Z,19.90
2022-07-28T00:36:26.799Z,19.80
2022-07-28T00:38:53.695Z,19.80
2022-07-28T00:41:23.088Z,19.80
2022-07-28T00:43:51.686Z,19.80
2022-07-28T00:46:20.762Z,19.90
2022-07-28T00:48:53.570Z,19.70
2022-07-28T00:51:22.755Z,19.70
2022-07-28T00:53:50.023Z,19.70
2022-07-28T00:56:17.050Z,19.90
2022-07-28T00:58:44.754Z,19.90
2022-07-28T01:01:15.745Z,19.90
2022-07-28T01:03:45.189Z,19.80
2022-07-28T01:06:47.686Z,19.80
2022-07-28T01:09:44.314Z,19.70
2022-07-28T01:12:32.841Z,19.80
2022-07-28T01:15:08.373Z,19.80
2022-07-28T01:18:13.482Z,19.90
2022-07-28T01:21:06.682Z,19.80
2022-07-28T01:23:33.463Z,19.90
2022-07-28T01:26:19.058Z,19.90
2022-07-28T01:29:20.507Z,19.90
2022-07-28T01:31:58.143Z,19.90
2022-07-28T01:34:35.124Z,19.90
2022-07-28T01:37:13.430Z,19.70
2022-07-28T01:39:42.662Z,19.80
2022-07-28T01:42:12.221Z,19.90
2022-07-28T01:44:44.986Z,19.90
2022-07-28T01:47:13.207Z,19.90
2022-07-28T01:49:43.685Z,20.00
2022-07-28T01:52:11.059Z,19.90
2022-07-28T01:54:40.968Z,19.90
2022-07-28T01:57:14.445Z,19.70
2022-07-28T01:59:42.778Z,19.70
2022-07-28T02:02:11.519Z,19.70
2022-07-28T02:04:43.044Z,19.70
2022-07-28T02:07:11.389Z,19.70
2022-07-28T02:09:40.496Z,19.80
2022-07-28T02:12:09.116Z,19.50
2022-07-28T02:14:37.292Z,19.70
2022-07-28T02:17:11.028Z,19.70
2022-07-28T02:19:40.610Z,19.70
2022-07-28T02:22:09.132Z,19.50
2022-07-28T02:24:37.300Z,19.50
2022-07-28T02:27:16.897Z,19.60
2022-07-28T02:29:51.180Z,19.60
2022-07-28T02:32:38.738Z,19.60
2022-07-28T02:35:19.589Z,19.60
2022-07-28T02:37:58.079Z,19.60
2022-07-28T02:40:33.319Z,19.60
2022-07-28T02:43:01.613Z,19.60
2022-07-28T02:45:29.686Z,19.30
2022-07-28T02:48:01.800Z,19.40
2022-07-28T02:50:29.721Z,19.10
2022-07-28T02:52:59.854Z,19.40
2022-07-28T02:55:27.820Z,19.40
2022-07-28T02:57:56.963Z,19.40
2022-07-28T03:00:25.194Z,19.30
2022-07-28T03:02:54.541Z,19.30
2022-07-28T03:05:21.693Z,19.40
2022-07-28T03:07:56.642Z,19.10
2022-07-28T03:10:34.282Z,19.10
2022-07-28T03:13:04.279Z,19.10
2022-07-28T03:15:32.081Z,19.10
2022-07-28T03:18:00.458Z,19.10
2022-07-28T03:20:27.589Z,19.10
2022-07-28T03:22:55.411Z,19.10
2022-07-28T03:25:41.045Z,19.20
2022-07-28T03:28:13.917Z,19.10
2022-07-28T03:30:52.078Z,19.10
2022-07-28T03:33:19.044Z,19.20
2022-07-28T03:35:50.412Z,19.10
2022-07-28T03:38:29.397Z,19.10
2022-07-28T03:40:56.925Z,19.10
2022-07-28T03:43:26.358Z,19.10
2022-07-28T03:45:53.407Z,19.10
2022-07-28T03:48:24.622Z,19.10
2022-07-28T03:50:51.456Z,18.90
2022-07-28T03:53:24.485Z,18.90
2022-07-28T03:55:51.795Z,18.90
2022-07-28T03:58:20.316Z,18.90
2022-07-28T04:00:48.328Z,18.90
2022-07-28T04:03:34.961Z,18.90
2022-07-28T04:06:03.474Z,19.00
2022-07-28T04:08:30.381Z,18.90
2022-07-28T04:10:57.249Z,18.80
2022-07-28T04:13:24.013Z,18.80
2022-07-28T04:15:50.857Z,18.90
2022-07-28T04:18:18.461Z,19.00
2022-07-28T04:20:45.494Z,18.90
2022-07-28T04:23:12.287Z,18.80
2022-07-28T04:25:39.268Z,18.70
2022-07-28T04:28:07.086Z,18.60
2022-07-28T04:30:34.176Z,18.60
2022-07-28T04:33:01.044Z,18.80
2022-07-28T04:35:28.429Z,18.70
2022-07-28T04:37:58.374Z,18.80
2022-07-28T04:40:26.852Z,18.70
2022-07-28T04:42:54.765Z,18.70
2022-07-28T04:45:22.123Z,18.80
2022-07-28T04:47:49.014Z,18.70
2022-07-28T04:50:18.889Z,18.80
2022-07-28T04:52:49.226Z,18.70
2022-07-28T04:55:16.992Z,18.60
2022-07-28T04:57:44.260Z,18.70
2022-07-28T05:00:13.463Z,18.80
2022-07-28T05:02:45.230Z,18.80
2022-07-28T05:05:12.952Z,18.80
2022-07-28T05:07:40.777Z,18.70
2022-07-28T05:10:10.089Z,18.60
2022-07-28T05:12:37.157Z,18.60
2022-07-28T05:15:05.295Z,18.80
2022-07-28T05:17:32.070Z,18.80
2022-07-28T05:19:58.878Z,18.90
2022-07-28T05:22:25.606Z,18.90
2022-07-28T05:24:52.667Z,18.90
2022-07-28T05:27:19.464Z,18.80
2022-07-28T05:29:47.745Z,18.70
2022-07-28T05:32:17.542Z,18.90
2022-07-28T05:34:46.232Z,18.90
2022-07-28T05:37:13.133Z,18.80
2022-07-28T05:39:39.976Z,19.00
2022-07-28T05:42:07.078Z,19.10
2022-07-28T05:44:38.189Z,19.20
2022-07-28T05:47:06.239Z,19.20
2022-07-28T05:49:33.836Z,19.20
2022-07-28T05:52:00.731Z,19.20
2022-07-28T05:54:28.113Z,19.20
2022-07-28T05:56:54.990Z,19.20
2022-07-28T05:59:21.803Z,18.90
2022-07-28T06:01:48.680Z,19.10
2022-07-28T06:04:31.291Z,19.20
2022-07-28T06:06:58.442Z,19.40
2022-07-28T06:09:25.368Z,19.60
2022-07-28T06:11:52.230Z,19.40
2022-07-28T06:14:19.415Z,19.40
2022-07-28T06:16:50.983Z,19.60
2022-07-28T06:19:18.758Z,19.60
2022-07-28T06:21:45.696Z,19.70
2022-07-28T06:24:12.738Z,20.10
2022-07-28T06:26:44.279Z,19.80
2022-07-28T06:29:12.623Z,19.90
2022-07-28T06:31:39.679Z,19.90
2022-07-28T06:34:06.897Z,19.90
2022-07-28T06:36:33.935Z,19.80
2022-07-28T06:39:00.875Z,20.00
2022-07-28T06:41:28.116Z,20.20
2022-07-28T06:43:54.968Z,20.20
2022-07-28T06:46:22.730Z,20.20
2022-07-28T06:48:49.673Z,20.20
2022-07-28T06:51:19.123Z,20.00
2022-07-28T06:53:48.282Z,19.90
2022-07-28T06:56:16.162Z,20.00
2022-07-28T06:58:46.826Z,20.00
2022-07-28T07:01:15.316Z,19.80
2022-07-28T07:03:43.511Z,19.80
2022-07-28T07:06:10.935Z,20.00
2022-07-28T07:08:38.368Z,20.20
2022-07-28T07:11:05.402Z,20.20
2022-07-28T07:13:32.927Z,20.20
2022-07-28T07:16:00.358Z,20.10
2022-07-28T07:18:27.316Z,20.40
2022-07-28T07:20:56.385Z,20.50
2022-07-28T07:23:23.451Z,20.50
2022-07-28T07:25:50.299Z,20.70
2022-07-28T07:28:17.121Z,20.70
2022-07-28T07:30:43.977Z,20.70
2022-07-28T07:33:10.947Z,20.80
2022-07-28T07:35:38.419Z,20.70
2022-07-28T07:38:05.643Z,20.70
2022-07-28T07:40:32.624Z,20.80
2022-07-28T07:42:59.447Z,22.10
2022-07-28T07:45:26.695Z,20.80
2022-07-28T07:47:53.518Z,20.70
2022-07-28T07:50:20.382Z,20.60
2022-07-28T07:52:49.829Z,20.70
2022-07-28T07:55:17.176Z,20.50
2022-07-28T07:57:45.014Z,20.60
2022-07-28T08:00:27.909Z,21.00
2022-07-28T08:03:00.405Z,21.00
2022-07-28T08:05:35.973Z,21.20
2022-07-28T08:08:06.862Z,21.40
2022-07-28T08:10:35.091Z,21.40
2022-07-28T08:13:03.300Z,21.40
2022-07-28T08:15:30.720Z,21.60
2022-07-28T08:17:57.771Z,21.70
2022-07-28T08:20:24.659Z,21.70
2022-07-28T08:22:53.967Z,21.60
2022-07-28T08:25:21.643Z,21.80
2022-07-28T08:27:48.977Z,21.80
2022-07-28T08:30:16.980Z,21.80
2022-07-28T08:32:56.849Z,21.50
2022-07-28T08:35:34.698Z,21.80
2022-07-28T08:38:03.959Z,22.00
2022-07-28T08:40:32.484Z,22.20
2022-07-28T08:43:13.751Z,22.30
2022-07-28T08:45:45.582Z,22.30
2022-07-28T08:48:13.199Z,22.30
2022-07-28T08:50:40.552Z,22.30
2022-07-28T08:53:08.652Z,22.20
2022-07-28T08:55:36.714Z,22.50
2022-07-28T08:58:04.415Z,22.50
2022-07-28T09:00:31.741Z,22.70
2022-07-28T09:02:59.546Z,22.70
2022-07-28T09:05:26.850Z,22.40
2022-07-28T09:07:55.805Z,22.60
2022-07-28T09:10:23.809Z,22.60
2022-07-28T09:12:51.253Z,22.50
2022-07-28T09:15:18.139Z,22.50
2022-07-28T09:17:44.977Z,22.60
2022-07-28T09:20:12.439Z,22.80
2022-07-28T09:22:59.811Z,23.10
2022-07-28T09:25:27.790Z,23.00
2022-07-28T09:27:55.246Z,23.00
2022-07-28T09:30:34.012Z,23.20
2022-07-28T09:33:42.843Z,23.30
2022-07-28T09:36:15.936Z,23.50
2022-07-28T09:38:43.220Z,23.50
2022-07-28T09:41:10.021Z,23.80
2022-07-28T09:43:44.150Z,23.90
2022-07-28T09:46:29.452Z,24.00
2022-07-28T09:49:00.401Z,24.30
2022-07-28T09:51:30.786Z,24.50
2022-07-28T09:54:08.712Z,24.50
2022-07-28T09:56:37.080Z,24.40
2022-07-28T09:59:04.576Z,24.10
2022-07-28T10:01:36.547Z,24.40
2022-07-28T10:04:04.637Z,24.60
2022-07-28T10:06:34.311Z,24.60
2022-07-28T10:09:02.788Z,24.90
2022-07-28T10:11:30.520Z,24.80
2022-07-28T10:14:05.253Z,24.70
2022-07-28T10:16:42.201Z,24.60
2022-07-28T10:19:09.230Z,24.60
2022-07-28T10:21:44.411Z,25.00
2022-07-28T10:24:22.528Z,25.10
2022-07-28T10:26:50.769Z,25.30
2022-07-28T10:29:20.738Z,25.70
2022-07-28T10:32:05.238Z,25.80
2022-07-28T10:34:39.518Z,25.70
2022-07-28T10:37:13.590Z,25.40
2022-07-28T10:39:44.388Z,25.50
2022-07-28T10:42:12.662Z,25.70
2022-07-28T10:44:41.509Z,26.00
2022-07-28T10:47:18.160Z,26.10
2022-07-28T10:49:46.675Z,26.10
2022-07-28T10:52:45.804Z,25.80
2022-07-28T10:55:32.237Z,25.90
2022-07-28T10:58:28.339Z,25.80
2022-07-28T11:00:58.191Z,26.00
2022-07-28T11:03:44.904Z,25.70
2022-07-28T11:06:24.516Z,26.50
2022-07-28T11:08:55.760Z,26.70
2022-07-28T11:11:47.090Z,27.00
2022-07-28T11:14:37.153Z,26.70
2022-07-28T11:17:10.299Z,26.70
2022-07-28T11:20:06.996Z,26.30
2022-07-28T11:22:33.215Z,26.70
2022-07-28T11:25:18.009Z,27.30
2022-07-28T11:27:50.516Z,27.00
2022-07-28T11:30:32.688Z,27.40
2022-07-28T11:33:00.715Z,26.60
2022-07-28T11:35:31.724Z,27.10
2022-07-28T11:38:01.889Z,26.80
2022-07-28T11:40:33.566Z,26.90
2022-07-28T11:43:27.897Z,27.20
2022-07-28T11:46:09.493Z,27.30
2022-07-28T11:48:45.024Z,27.80
2022-07-28T11:51:13.624Z,27.70
2022-07-28T11:53:45.046Z,27.20
2022-07-28T11:56:13.829Z,27.30
2022-07-28T11:58:42.310Z,27.40
2022-07-28T12:01:18.995Z,27.80
2022-07-28T12:03:54.861Z,27.90
2022-07-28T12:06:28.587Z,28.40
2022-07-28T12:08:58.204Z,28.40
2022-07-28T12:11:26.493Z,27.60
2022-07-28T12:14:20.065Z,28.10
2022-07-28T12:16:50.666Z,27.70
2022-07-28T12:19:19.589Z,28.10
2022-07-28T12:21:55.124Z,28.80
2022-07-28T12:24:45.753Z,29.00
2022-07-28T12:27:14.977Z,29.20
2022-07-28T12:29:43.513Z,29.10
2022-07-28T12:32:10.640Z,28.70
2022-07-28T12:34:39.878Z,28.70
2022-07-28T12:37:11.000Z,28.70
2022-07-28T12:39:42.717Z,28.60
2022-07-28T12:42:11.648Z,28.60
2022-07-28T12:44:40.506Z,27.70
2022-07-28T12:47:09.655Z,27.10
2022-07-28T12:49:37.986Z,28.30
2022-07-28T12:52:17.862Z,28.40
2022-07-28T12:54:53.358Z,28.30
2022-07-28T12:57:59.144Z,29.20
2022-07-28T13:00:30.573Z,29.80
2022-07-28T13:02:59.797Z,29.90
2022-07-28T13:05:31.867Z,29.90
2022-07-28T13:08:04.858Z,29.30
2022-07-28T13:10:32.219Z,28.80
2022-07-28T13:13:07.157Z,29.70
2022-07-28T13:15:34.371Z,29.80
2022-07-28T13:18:01.379Z,29.20
2022-07-28T13:20:28.808Z,29.10
2022-07-28T13:22:57.307Z,29.00
2022-07-28T13:25:24.621Z,28.30
2022-07-28T13:27:55.654Z,28.30
2022-07-28T13:30:23.734Z,28.30
2022-07-28T13:32:50.864Z,28.10
2022-07-28T13:35:18.132Z,28.90
2022-07-28T13:37:46.190Z,28.80
2022-07-28T13:40:13.255Z,28.60
2022-07-28T13:42:40.036Z,29.20
2022-07-28T13:45:19.640Z,29.70
2022-07-28T13:47:52.411Z,29.20
2022-07-28T13:50:20.875Z,29.50
2022-07-28T13:52:48.462Z,29.50
2022-07-28T13:55:19.659Z,29.70
2022-07-28T13:57:49.841Z,29.70
2022-07-28T14:00:18.603Z,30.30
2022-07-28T14:02:48.770Z,30.10
2022-07-28T14:05:16.416Z,30.50
2022-07-28T14:07:48.651Z,30.40
2022-07-28T14:10:17.292Z,30.30
2022-07-28T14:12:44.926Z,30.50
2022-07-28T14:15:13.551Z,29.50
2022-07-28T14:17:43.593Z,28.90
2022-07-28T14:20:14.022Z,29.40
2022-07-28T14:22:41.394Z,30.40
2022-07-28T14:25:08.849Z,30.60
2022-07-28T14:27:35.717Z,30.00
2022-07-28T14:30:04.132Z,29.40
2022-07-28T14:32:31.899Z,29.50
2022-07-28T14:34:58.934Z,30.40
2022-07-28T14:37:26.586Z,31.60
2022-07-28T14:39:53.721Z,31.20
2022-07-28T14:42:20.506Z,30.20
2022-07-28T14:44:47.639Z,30.80
2022-07-28T14:47:15.604Z,30.90
2022-07-28T14:49:57.991Z,30.80
2022-07-28T14:52:28.652Z,30.80
2022-07-28T14:54:56.549Z,31.30
2022-07-28T14:57:45.902Z,31.70
2022-07-28T15:00:13.409Z,31.60
2022-07-28T15:02:40.492Z,31.90
2022-07-28T15:05:09.119Z,31.90
2022-07-28T15:07:36.816Z,32.10
2022-07-28T15:10:07.003Z,31.30
2022-07-28T15:12:33.864Z,31.10
2022-07-28T15:15:01.301Z,30.00
2022-07-28T15:17:28.239Z,30.90
2022-07-28T15:19:56.826Z,31.30
2022-07-28T15:22:26.231Z,31.70
2022-07-28T15:24:53.504Z,31.60
2022-07-28T15:27:20.685Z,31.80
2022-07-28T15:29:48.716Z,31.50
2022-07-28T15:32:19.476Z,31.70
2022-07-28T15:34:53.340Z,31.90
2022-07-28T15:37:20.298Z,32.00
2022-07-28T15:39:47.873Z,31.80
2022-07-28T15:42:15.139Z,31.50
2022-07-28T15:44:41.998Z,31.20
2022-07-28T15:47:08.860Z,31.50
2022-07-28T15:49:36.347Z,30.90
2022-07-28T15:52:04.441Z,30.80
2022-07-28T15:54:31.442Z,31.30
2022-07-28T15:56:58.271Z,32.10
2022-07-28T15:59:26.671Z,32.00
2022-07-28T16:02:17.468Z,31.70
2022-07-28T16:04:53.411Z,31.60
2022-07-28T16:07:24.613Z,32.10
2022-07-28T16:09:54.904Z,31.60
2022-07-28T16:12:24.769Z,31.50
2022-07-28T16:14:53.913Z,31.60
2022-07-28T16:17:22.206Z,31.40
2022-07-28T16:19:50.497Z,31.90
2022-07-28T16:22:19.259Z,31.90
2022-07-28T16:24:46.396Z,30.60
2022-07-28T16:27:13.211Z,31.30
2022-07-28T16:29:40.740Z,31.90
2022-07-28T16:32:07.705Z,32.10
2022-07-28T16:34:34.763Z,31.90
2022-07-28T16:37:01.750Z,31.50
2022-07-28T16:39:33.380Z,31.30
2022-07-28T16:42:00.138Z,31.70
2022-07-28T16:44:28.969Z,31.90
2022-07-28T16:46:56.119Z,31.90
2022-07-28T16:49:23.407Z,31.70
2022-07-28T16:51:50.476Z,31.60
2022-07-28T16:54:17.751Z,30.30
2022-07-28T16:56:45.834Z,30.80
2022-07-28T16:59:13.053Z,31.30
2022-07-28T17:01:45.525Z,31.20
2022-07-28T17:04:15.172Z,30.80
2022-07-28T17:06:42.352Z,30.20
2022-07-28T17:09:09.315Z,30.60
2022-07-28T17:11:36.142Z,30.80
2022-07-28T17:14:04.658Z,30.90
2022-07-28T17:16:31.693Z,30.80
2022-07-28T17:18:58.941Z,30.60
2022-07-28T17:21:26.141Z,30.40
2022-07-28T17:23:53.638Z,30.20
2022-07-28T17:29:07.942Z,29.30
2022-07-28T17:31:34.939Z,29.20
2022-07-28T17:34:01.906Z,29.20
2022-07-28T17:36:33.802Z,29.00
2022-07-28T17:39:01.168Z,28.80
2022-07-28T17:41:28.380Z,28.70
2022-07-28T17:43:55.263Z,28.60
2022-07-28T17:46:22.861Z,28.40
2022-07-28T17:48:53.525Z,28.30
2022-07-28T17:51:20.425Z,28.30
2022-07-28T17:53:48.689Z,28.30
2022-07-28T17:56:17.169Z,28.30
2022-07-28T17:58:46.437Z,28.00
2022-07-28T18:01:15.166Z,28.20
2022-07-28T18:03:58.500Z,28.20
2022-07-28T18:06:34.218Z,28.10
2022-07-28T18:09:10.275Z,28.00
2022-07-28T18:11:57.652Z,28.00
2022-07-28T18:14:29.957Z,27.90
2022-07-28T18:16:58.238Z,27.90
2022-07-28T18:19:26.101Z,27.80
2022-07-28T18:21:53.157Z,27.80
2022-07-28T18:24:22.073Z,27.70
2022-07-28T18:26:51.475Z,27.70
2022-07-28T18:29:20.334Z,27.60
2022-07-28T18:31:49.155Z,27.60
2022-07-28T18:34:16.465Z,27.50
2022-07-28T18:36:44.129Z,27.60
2022-07-28T18:39:10.986Z,27.50
2022-07-28T18:41:47.028Z,27.40
2022-07-28T18:44:18.949Z,27.40
2022-07-28T18:46:46.679Z,27.30
2022-07-28T18:49:14.191Z,27.30
2022-07-28T18:51:45.391Z,27.30
2022-07-28T18:54:14.987Z,27.30
2022-07-28T18:56:43.430Z,27.20
2022-07-28T18:59:10.520Z,27.10
2022-07-28T19:01:37.455Z,27.10
2022-07-28T19:04:04.546Z,27.00
2022-07-28T19:06:31.404Z,27.00
2022-07-28T19:08:58.579Z,26.90
2022-07-28T19:11:25.400Z,26.90
2022-07-28T19:13:52.609Z,26.80
2022-07-28T19:16:19.627Z,26.90
2022-07-28T19:18:46.434Z,26.80
2022-07-28T19:21:13.565Z,26.80
2022-07-28T19:23:40.485Z,27.50
2022-07-28T19:26:07.386Z,26.70
2022-07-28T19:28:34.421Z,26.70
2022-07-28T19:31:10.199Z,26.60
2022-07-28T19:33:38.533Z,26.50
2022-07-28T19:36:11.666Z,26.50
2022-07-28T19:38:38.478Z,26.40
2022-07-28T19:41:05.313Z,26.40
2022-07-28T19:43:32.180Z,26.40
2022-07-28T19:46:00.226Z,26.40
2022-07-28T19:48:27.244Z,26.40
2022-07-28T19:50:54.233Z,26.40
2022-07-28T19:53:21.138Z,26.40
2022-07-28T19:55:52.066Z,26.40
2022-07-28T19:58:20.072Z,26.40
2022-07-28T20:00:48.476Z,26.40
2022-07-28T20:04:00.724Z,26.30
2022-07-28T20:06:04.051Z,26.30
2022-07-28T20:08:31.135Z,26.30
2022-07-28T20:10:58.398Z,26.30
2022-07-28T20:13:25.308Z,26.20
2022-07-28T20:15:52.158Z,26.10
2022-07-28T20:18:19.706Z,25.80
2022-07-28T20:20:47.261Z,25.80
2022-07-28T20:23:14.835Z,25.80
2022-07-28T20:25:42.635Z,25.80
2022-07-28T20:28:09.535Z,26.00
2022-07-28T20:30:36.458Z,26.00
2022-07-28T20:33:04.308Z,26.00
2022-07-28T20:35:34.048Z,26.00
2022-07-28T20:38:02.232Z,25.90
2022-07-28T20:40:29.023Z,25.80
2022-07-28T20:42:55.831Z,25.80
2022-07-28T20:45:22.783Z,25.80
2022-07-28T20:47:49.642Z,25.80
2022-07-28T20:50:16.562Z,25.80
2022-07-28T20:52:43.505Z,25.70
2022-07-28T20:55:11.448Z,25.80
2022-07-28T20:57:38.576Z,25.70
2022-07-28T21:00:07.065Z,25.70
2022-07-28T21:02:34.233Z,25.70
2022-07-28T21:05:01.175Z,25.60
2022-07-28T21:08:05.493Z,25.60
2022-07-28T21:10:15.473Z,25.50
2022-07-28T21:12:42.387Z,25.50
2022-07-28T21:15:10.049Z,25.30
2022-07-28T21:17:36.987Z,25.30
2022-07-28T21:20:05.701Z,25.30
2022-07-28T21:22:32.544Z,25.20
2022-07-28T21:24:59.384Z,25.20
2022-07-28T21:27:26.235Z,25.20
2022-07-28T21:32:19.277Z,25.20
2022-07-28T21:34:46.211Z,25.20
2022-07-28T21:37:14.112Z,25.10
2022-07-28T21:39:41.135Z,25.00
2022-07-28T21:42:09.035Z,25.00
2022-07-28T21:44:37.380Z,25.00
2022-07-28T21:47:07.250Z,25.00
2022-07-28T21:49:34.109Z,25.00
2022-07-28T21:52:01.103Z,24.90
2022-07-28T21:54:28.046Z,25.00
2022-07-28T21:56:54.858Z,24.80
2022-07-28T21:59:21.710Z,24.90
2022-07-28T22:01:48.709Z,24.90
2022-07-28T22:04:16.221Z,25.00
2022-07-28T22:06:46.273Z,24.80
2022-07-28T22:09:14.668Z,24.70
2022-07-28T22:11:41.869Z,24.80
2022-07-28T22:14:08.810Z,24.80
2022-07-28T22:16:35.642Z,24.70
2022-07-28T22:19:02.774Z,24.70
2022-07-28T22:21:29.816Z,24.70
2022-07-28T22:23:56.767Z,24.70
2022-07-28T22:26:23.569Z,24.70
2022-07-28T22:28:50.500Z,24.70
2022-07-28T22:31:17.398Z,24.70
2022-07-28T22:33:44.326Z,24.70
2022-07-28T22:36:11.291Z,24.60
2022-07-28T22:38:38.207Z,24.70
2022-07-28T22:41:05.013Z,24.60
2022-07-28T22:43:33.481Z,24.40
2022-07-28T22:46:00.789Z,24.30
2022-07-28T22:48:28.120Z,24.20
2022-07-28T22:50:55.041Z,24.10
2022-07-28T22:53:22.055Z,24.10
2022-07-28T22:55:48.959Z,24.00
2022-07-28T22:58:15.881Z,23.70
2022-07-28T23:00:42.876Z,23.70
2022-07-28T23:03:13.340Z,23.80
2022-07-28T23:05:42.855Z,23.80
2022-07-28T23:08:10.643Z,24.00
2022-07-28T23:10:37.825Z,24.10
2022-07-28T23:13:07.352Z,24.10
2022-07-28T23:15:41.163Z,24.00
2022-07-28T23:18:15.944Z,23.70
2022-07-28T23:20:44.921Z,23.70
2022-07-28T23:23:12.769Z,23.50
2022-07-28T23:25:42.727Z,23.50
2022-07-28T23:28:10.475Z,23.30
2022-07-28T23:30:37.878Z,23.50
2022-07-28T23:33:05.793Z,23.60
